sensor_id;sensor_type;location;lat;lon;timestamp;pressure;altitude;pressure_sealevel;temperature;humidity
81397;BME280;70852;49.908;8.126;2023-12-20T00:00:27;100283.63;;;4.00;95.00
81397;BME280;70852;49.908;8.126;2023-12-20T00:02:55;100279.25;;;3.94;95.14
81397;BME280;70852;49.908;8.126;2023-12-20T00:05:23;100281.44;;;4.02;94.71
81397;BME280;70852;49.908;8.126;2023-12-20T00:07:48;100296.75;;;3.98;94.97
81397;BME280;70852;49.908;8.126;2023-12-20T00:10:13;100289.09;;;3.95;94.97
81397;BME280;70852;49.908;8.126;2023-12-20T00:12:39;100290.19;;;3.99;95.38
81397;BME280;70852;49.908;8.126;2023-12-20T00:15:07;100280.91;;;4.00;95.00
81397;BME280;70852;49.908;8.126;2023-12-20T00:17:32;100270.53;;;4.02;95.16
81397;BME280;70852;49.908;8.126;2023-12-20T00:19:57;100282.53;;;3.96;95.35
81397;BME280;70852;49.908;8.126;2023-12-20T00:22:23;100283.91;;;3.98;95.31
81397;BME280;70852;49.908;8.126;2023-12-20T00:24:48;100271.88;;;3.99;94.97
81397;BME280;70852;49.908;8.126;2023-12-20T00:27:13;100272.44;;;3.96;94.93
81397;BME280;70852;49.908;8.126;2023-12-20T00:29:39;100276.53;;;3.99;95.21
81397;BME280;70852;49.908;8.126;2023-12-20T00:32:04;100266.97;;;3.96;95.42
81397;BME280;70852;49.908;8.126;2023-12-20T00:34:29;100262.34;;;3.92;95.06
81397;BME280;70852;49.908;8.126;2023-12-20T00:36:57;100259.03;;;3.95;95.38
81397;BME280;70852;49.908;8.126;2023-12-20T00:39:25;100264.50;;;3.95;95.42
81397;BME280;70852;49.908;8.126;2023-12-20T00:41:50;100257.41;;;3.94;95.03
81397;BME280;70852;49.908;8.126;2023-12-20T00:44:16;100259.03;;;3.95;95.55
81397;BME280;70852;49.908;8.126;2023-12-20T00:46:41;100258.78;;;3.91;95.27
81397;BME280;70852;49.908;8.126;2023-12-20T00:49:06;100258.78;;;3.91;96.05
81397;BME280;70852;49.908;8.126;2023-12-20T00:51:31;100254.94;;;3.92;95.44
81397;BME280;70852;49.908;8.126;2023-12-20T00:54:02;100247.84;;;3.96;94.79
81397;BME280;70852;49.908;8.126;2023-12-20T00:56:27;100242.66;;;3.95;95.48
81397;BME280;70852;49.908;8.126;2023-12-20T00:58:52;100243.72;;;3.94;95.38
81397;BME280;70852;49.908;8.126;2023-12-20T01:01:21;100244.31;;;3.91;95.43
81397;BME280;70852;49.908;8.126;2023-12-20T01:03:47;100233.06;;;3.92;95.26
81397;BME280;70852;49.908;8.126;2023-12-20T01:06:13;100236.09;;;3.96;95.40
81397;BME280;70852;49.908;8.126;2023-12-20T01:08:38;100235.53;;;3.94;95.87
81397;BME280;70852;49.908;8.126;2023-12-20T01:11:04;100236.91;;;3.96;95.94
81397;BME280;70852;49.908;8.126;2023-12-20T01:13:33;100233.34;;;3.96;95.63
81397;BME280;70852;49.908;8.126;2023-12-20T01:15:58;100237.44;;;3.98;95.44
81397;BME280;70852;49.908;8.126;2023-12-20T01:18:26;100238.28;;;3.99;95.55
81397;BME280;70852;49.908;8.126;2023-12-20T01:20:51;100233.63;;;3.99;95.47
81397;BME280;70852;49.908;8.126;2023-12-20T01:23:17;100235.53;;;3.99;95.37
81397;BME280;70852;49.908;8.126;2023-12-20T01:25:44;100230.06;;;3.99;95.34
81397;BME280;70852;49.908;8.126;2023-12-20T01:28:10;100239.34;;;4.03;95.65
81397;BME280;70852;49.908;8.126;2023-12-20T01:30:35;100229.53;;;3.97;95.57
81397;BME280;70852;49.908;8.126;2023-12-20T01:33:00;100223.53;;;4.00;95.47
81397;BME280;70852;49.908;8.126;2023-12-20T01:35:26;100215.31;;;3.95;95.45
81397;BME280;70852;49.908;8.126;2023-12-20T01:37:54;100228.69;;;4.07;95.48
81397;BME280;70852;49.908;8.126;2023-12-20T01:40:22;100228.97;;;4.00;95.94
81397;BME280;70852;49.908;8.126;2023-12-20T01:43:07;100235.53;;;3.94;96.03
81397;BME280;70852;49.908;8.126;2023-12-20T01:45:39;100236.34;;;3.99;95.87
81397;BME280;70852;49.908;8.126;2023-12-20T01:48:05;100242.66;;;4.00;95.67
81397;BME280;70852;49.908;8.126;2023-12-20T01:50:36;100230.06;;;3.94;95.57
81397;BME280;70852;49.908;8.126;2023-12-20T01:53:02;100239.09;;;3.99;95.46
81397;BME280;70852;49.908;8.126;2023-12-20T01:55:31;100245.09;;;4.01;96.01
81397;BME280;70852;49.908;8.126;2023-12-20T01:57:57;100247.03;;;4.01;95.79
81397;BME280;70852;49.908;8.126;2023-12-20T02:00:23;100244.00;;;4.02;95.82
81397;BME280;70852;49.908;8.126;2023-12-20T02:02:53;100232.50;;;4.05;95.77
81397;BME280;70852;49.908;8.126;2023-12-20T02:05:21;100241.25;;;4.08;95.76
81397;BME280;70852;49.908;8.126;2023-12-20T02:07:47;100223.75;;;4.09;95.60
81397;BME280;70852;49.908;8.126;2023-12-20T02:10:15;100253.81;;;4.09;95.46
81397;BME280;70852;49.908;8.126;2023-12-20T02:12:40;100243.44;;;4.05;95.67
81397;BME280;70852;49.908;8.126;2023-12-20T02:15:08;100234.19;;;4.01;95.85
81397;BME280;70852;49.908;8.126;2023-12-20T02:17:34;100219.94;;;4.04;95.55
81397;BME280;70852;49.908;8.126;2023-12-20T02:19:59;100207.94;;;4.00;95.71
81397;BME280;70852;49.908;8.126;2023-12-20T02:22:27;100200.53;;;4.11;95.76
81397;BME280;70852;49.908;8.126;2023-12-20T02:24:53;100197.00;;;4.00;95.68
81397;BME280;70852;49.908;8.126;2023-12-20T02:27:19;100216.41;;;3.99;95.64
81397;BME280;70852;49.908;8.126;2023-12-20T02:29:47;100213.66;;;4.04;95.45
81397;BME280;70852;49.908;8.126;2023-12-20T02:32:12;100220.22;;;4.03;95.37
81397;BME280;70852;49.908;8.126;2023-12-20T02:34:38;100218.88;;;4.00;96.18
81397;BME280;70852;49.908;8.126;2023-12-20T02:37:03;100213.94;;;3.97;96.03
81397;BME280;70852;49.908;8.126;2023-12-20T02:39:28;100215.56;;;4.03;95.25
81397;BME280;70852;49.908;8.126;2023-12-20T02:41:56;100218.56;;;4.12;95.24
81397;BME280;70852;49.908;8.126;2023-12-20T02:44:24;100225.66;;;4.18;95.12
81397;BME280;70852;49.908;8.126;2023-12-20T02:46:49;100220.22;;;4.13;95.00
81397;BME280;70852;49.908;8.126;2023-12-20T02:49:15;100236.84;;;4.17;94.72
81397;BME280;70852;49.908;8.126;2023-12-20T02:51:42;100255.44;;;4.15;95.22
81397;BME280;70852;49.908;8.126;2023-12-20T02:54:08;100237.66;;;4.22;95.06
81397;BME280;70852;49.908;8.126;2023-12-20T02:56:33;100238.47;;;4.28;95.06
81397;BME280;70852;49.908;8.126;2023-12-20T02:59:01;100226.16;;;4.25;94.61
81397;BME280;70852;49.908;8.126;2023-12-20T03:01:28;100227.22;;;4.34;94.52
81397;BME280;70852;49.908;8.126;2023-12-20T03:03:53;100224.19;;;4.41;94.08
81397;BME280;70852;49.908;8.126;2023-12-20T03:06:21;100229.41;;;4.37;94.27
81397;BME280;70852;49.908;8.126;2023-12-20T03:08:46;100241.97;;;4.44;94.23
81397;BME280;70852;49.908;8.126;2023-12-20T03:11:12;100241.69;;;4.35;94.74
81397;BME280;70852;49.908;8.126;2023-12-20T03:13:40;100245.00;;;4.32;95.03
81397;BME280;70852;49.908;8.126;2023-12-20T03:16:12;100243.09;;;4.27;95.82
81397;BME280;70852;49.908;8.126;2023-12-20T03:18:37;100249.94;;;4.30;96.00
81397;BME280;70852;49.908;8.126;2023-12-20T03:21:04;100251.31;;;4.32;94.92
81397;BME280;70852;49.908;8.126;2023-12-20T03:23:30;100250.72;;;4.40;95.04
81397;BME280;70852;49.908;8.126;2023-12-20T03:25:59;100255.63;;;4.44;94.69
81397;BME280;70852;49.908;8.126;2023-12-20T03:28:25;100259.97;;;4.55;94.78
81397;BME280;70852;49.908;8.126;2023-12-20T03:30:51;100274.50;;;4.40;94.72
81397;BME280;70852;49.908;8.126;2023-12-20T03:33:22;100270.13;;;4.44;94.34
81397;BME280;70852;49.908;8.126;2023-12-20T03:35:47;100276.13;;;4.46;94.60
81397;BME280;70852;49.908;8.126;2023-12-20T03:38:15;100263.81;;;4.49;94.29
81397;BME280;70852;49.908;8.126;2023-12-20T03:40:40;100268.72;;;4.47;94.44
81397;BME280;70852;49.908;8.126;2023-12-20T03:43:08;100273.69;;;4.45;94.22
81397;BME280;70852;49.908;8.126;2023-12-20T03:45:38;100270.94;;;4.45;94.38
81397;BME280;70852;49.908;8.126;2023-12-20T03:48:06;100280.25;;;4.44;94.40
81397;BME280;70852;49.908;8.126;2023-12-20T03:50:31;100283.81;;;4.44;94.47
81397;BME280;70852;49.908;8.126;2023-12-20T03:52:56;100282.94;;;4.54;94.12
81397;BME280;70852;49.908;8.126;2023-12-20T03:55:24;100286.78;;;4.48;94.72
81397;BME280;70852;49.908;8.126;2023-12-20T03:57:49;100289.78;;;4.51;94.24
81397;BME280;70852;49.908;8.126;2023-12-20T04:00:15;100282.44;;;4.41;94.84
81397;BME280;70852;49.908;8.126;2023-12-20T04:02:41;100277.47;;;4.49;95.11
81397;BME280;70852;49.908;8.126;2023-12-20T04:05:08;100289.28;;;4.44;94.79
81397;BME280;70852;49.908;8.126;2023-12-20T04:07:33;100279.16;;;4.45;95.03
81397;BME280;70852;49.908;8.126;2023-12-20T04:09:59;100284.03;;;4.53;94.65
81397;BME280;70852;49.908;8.126;2023-12-20T04:12:27;100287.31;;;4.55;94.30
81397;BME280;70852;49.908;8.126;2023-12-20T04:14:53;100292.78;;;4.55;94.08
81397;BME280;70852;49.908;8.126;2023-12-20T04:17:21;100304.28;;;4.52;94.74
81397;BME280;70852;49.908;8.126;2023-12-20T04:19:52;100317.69;;;4.53;95.40
81397;BME280;70852;49.908;8.126;2023-12-20T04:22:18;100320.69;;;4.52;94.85
81397;BME280;70852;49.908;8.126;2023-12-20T04:24:44;100301.03;;;4.45;94.94
81397;BME280;70852;49.908;8.126;2023-12-20T04:27:11;100314.97;;;4.43;94.69
81397;BME280;70852;49.908;8.126;2023-12-20T04:29:39;100325.09;;;4.37;95.03
81397;BME280;70852;49.908;8.126;2023-12-20T04:32:05;100320.16;;;4.39;95.27
81397;BME280;70852;49.908;8.126;2023-12-20T04:34:33;100332.75;;;4.40;95.42
81397;BME280;70852;49.908;8.126;2023-12-20T04:36:58;100336.59;;;4.45;95.57
81397;BME280;70852;49.908;8.126;2023-12-20T04:39:26;100344.47;;;4.51;95.41
81397;BME280;70852;49.908;8.126;2023-12-20T04:41:52;100349.88;;;4.66;94.12
81397;BME280;70852;49.908;8.126;2023-12-20T04:44:20;100338.94;;;4.76;92.53
81397;BME280;70852;49.908;8.126;2023-12-20T04:46:48;100342.72;;;4.86;91.96
81397;BME280;70852;49.908;8.126;2023-12-20T04:49:14;100342.19;;;4.84;92.35
81397;BME280;70852;49.908;8.126;2023-12-20T04:51:39;100362.78;;;4.66;93.13
81397;BME280;70852;49.908;8.126;2023-12-20T04:54:07;100368.56;;;4.54;93.47
81397;BME280;70852;49.908;8.126;2023-12-20T04:56:33;100373.75;;;4.51;93.41
81397;BME280;70852;49.908;8.126;2023-12-20T04:58:58;100370.75;;;4.47;91.81
81397;BME280;70852;49.908;8.126;2023-12-20T05:01:49;100375.13;;;4.43;90.01
81397;BME280;70852;49.908;8.126;2023-12-20T05:04:19;100375.41;;;4.36;88.71
81397;BME280;70852;49.908;8.126;2023-12-20T05:06:45;100381.47;;;4.13;90.23
81397;BME280;70852;49.908;8.126;2023-12-20T05:09:13;100388.81;;;4.18;88.29
81397;BME280;70852;49.908;8.126;2023-12-20T05:11:40;100391.31;;;4.09;88.10
81397;BME280;70852;49.908;8.126;2023-12-20T05:14:10;100382.00;;;4.05;87.16
81397;BME280;70852;49.908;8.126;2023-12-20T05:16:36;100385.56;;;4.05;86.83
81397;BME280;70852;49.908;8.126;2023-12-20T05:19:01;100386.94;;;3.98;86.02
81397;BME280;70852;49.908;8.126;2023-12-20T05:21:31;100383.63;;;3.96;86.45
81397;BME280;70852;49.908;8.126;2023-12-20T05:23:59;100376.56;;;4.00;85.63
81397;BME280;70852;49.908;8.126;2023-12-20T05:26:27;100380.09;;;4.11;84.35
81397;BME280;70852;49.908;8.126;2023-12-20T05:28:54;100390.19;;;4.20;84.34
81397;BME280;70852;49.908;8.126;2023-12-20T05:31:20;100387.44;;;4.35;82.59
81397;BME280;70852;49.908;8.126;2023-12-20T05:33:45;100386.34;;;4.36;83.09
81397;BME280;70852;49.908;8.126;2023-12-20T05:36:10;100395.38;;;4.42;82.16
81397;BME280;70852;49.908;8.126;2023-12-20T05:38:38;100397.00;;;4.43;82.77
81397;BME280;70852;49.908;8.126;2023-12-20T05:41:03;100386.91;;;4.33;84.91
81397;BME280;70852;49.908;8.126;2023-12-20T05:43:31;100380.31;;;4.34;83.22
81397;BME280;70852;49.908;8.126;2023-12-20T05:45:56;100377.88;;;4.38;82.26
81397;BME280;70852;49.908;8.126;2023-12-20T05:48:21;100380.34;;;4.29;83.10
81397;BME280;70852;49.908;8.126;2023-12-20T05:50:47;100383.91;;;4.20;84.04
81397;BME280;70852;49.908;8.126;2023-12-20T05:53:14;100376.56;;;4.00;84.37
81397;BME280;70852;49.908;8.126;2023-12-20T05:55:42;100386.09;;;3.92;84.84
81397;BME280;70852;49.908;8.126;2023-12-20T05:58:07;100381.19;;;3.84;84.93
81397;BME280;70852;49.908;8.126;2023-12-20T06:00:35;100385.81;;;3.74;85.11
81397;BME280;70852;49.908;8.126;2023-12-20T06:03:02;100383.34;;;3.62;85.49
81397;BME280;70852;49.908;8.126;2023-12-20T06:05:32;100388.53;;;3.58;85.93
81397;BME280;70852;49.908;8.126;2023-12-20T06:07:57;100404.94;;;3.58;86.17
81397;BME280;70852;49.908;8.126;2023-12-20T06:10:27;100404.91;;;3.48;86.41
81397;BME280;70852;49.908;8.126;2023-12-20T06:12:52;100410.06;;;3.45;86.14
81397;BME280;70852;49.908;8.126;2023-12-20T06:15:17;100410.03;;;3.35;85.92
81397;BME280;70852;49.908;8.126;2023-12-20T06:17:47;100413.31;;;3.26;86.84
81397;BME280;70852;49.908;8.126;2023-12-20T06:20:12;100405.34;;;3.20;86.88
81397;BME280;70852;49.908;8.126;2023-12-20T06:22:38;100414.09;;;3.22;86.84
81397;BME280;70852;49.908;8.126;2023-12-20T06:25:06;100421.72;;;3.15;86.80
81397;BME280;70852;49.908;8.126;2023-12-20T06:27:36;100420.34;;;3.12;86.86
81397;BME280;70852;49.908;8.126;2023-12-20T06:30:05;100408.56;;;3.02;87.04
81397;BME280;70852;49.908;8.126;2023-12-20T06:32:32;100418.91;;;2.94;87.68
81397;BME280;70852;49.908;8.126;2023-12-20T06:35:01;100422.41;;;2.90;87.97
81397;BME280;70852;49.908;8.126;2023-12-20T06:37:31;100431.16;;;2.92;87.71
81397;BME280;70852;49.908;8.126;2023-12-20T06:39:56;100428.44;;;2.92;87.66
81397;BME280;70852;49.908;8.126;2023-12-20T06:42:23;100410.72;;;2.94;87.58
81397;BME280;70852;49.908;8.126;2023-12-20T06:44:48;100420.25;;;2.92;87.84
81397;BME280;70852;49.908;8.126;2023-12-20T06:47:13;100430.34;;;2.91;88.69
81397;BME280;70852;49.908;8.126;2023-12-20T06:49:39;100424.88;;;2.91;88.63
81397;BME280;70852;49.908;8.126;2023-12-20T06:52:05;100422.44;;;2.95;88.37
81397;BME280;70852;49.908;8.126;2023-12-20T06:54:33;100409.91;;;2.94;87.86
81397;BME280;70852;49.908;8.126;2023-12-20T06:56:59;100405.78;;;2.91;88.17
81397;BME280;70852;49.908;8.126;2023-12-20T06:59:25;100400.28;;;2.86;88.43
81397;BME280;70852;49.908;8.126;2023-12-20T07:01:51;100410.97;;;2.93;88.50
81397;BME280;70852;49.908;8.126;2023-12-20T07:04:17;100409.03;;;2.88;88.57
81397;BME280;70852;49.908;8.126;2023-12-20T07:06:45;100416.41;;;2.88;88.45
81397;BME280;70852;49.908;8.126;2023-12-20T07:09:11;100434.72;;;2.92;88.18
81397;BME280;70852;49.908;8.126;2023-12-20T07:11:38;100426.00;;;2.96;88.39
81397;BME280;70852;49.908;8.126;2023-12-20T07:14:06;100429.59;;;3.06;87.93
81397;BME280;70852;49.908;8.126;2023-12-20T07:16:32;100430.13;;;3.03;87.67
81397;BME280;70852;49.908;8.126;2023-12-20T07:18:57;100427.13;;;3.10;88.22
81397;BME280;70852;49.908;8.126;2023-12-20T07:21:22;100435.88;;;3.12;88.17
81397;BME280;70852;49.908;8.126;2023-12-20T07:23:50;100436.75;;;3.22;88.09
81397;BME280;70852;49.908;8.126;2023-12-20T07:26:17;100444.41;;;3.25;87.77
81397;BME280;70852;49.908;8.126;2023-12-20T07:28:44;100443.81;;;3.13;88.04
81397;BME280;70852;49.908;8.126;2023-12-20T07:31:15;100445.16;;;3.06;88.44
81397;BME280;70852;49.908;8.126;2023-12-20T07:33:40;100451.13;;;3.08;87.70
81397;BME280;70852;49.908;8.126;2023-12-20T07:36:06;100452.72;;;2.99;87.92
81397;BME280;70852;49.908;8.126;2023-12-20T07:38:32;100455.25;;;3.05;87.85
81397;BME280;70852;49.908;8.126;2023-12-20T07:41:00;100457.16;;;3.05;87.67
81397;BME280;70852;49.908;8.126;2023-12-20T07:43:25;100454.63;;;2.93;88.20
81397;BME280;70852;49.908;8.126;2023-12-20T07:45:50;100467.41;;;2.87;89.06
81397;BME280;70852;49.908;8.126;2023-12-20T07:48:16;100464.97;;;2.91;88.32
81397;BME280;70852;49.908;8.126;2023-12-20T07:50:44;100470.72;;;2.94;88.09
81397;BME280;70852;49.908;8.126;2023-12-20T07:53:11;100479.50;;;3.02;88.31
81397;BME280;70852;49.908;8.126;2023-12-20T07:55:36;100480.69;;;3.21;86.81
81397;BME280;70852;49.908;8.126;2023-12-20T07:58:02;100492.19;;;3.33;87.36
81397;BME280;70852;49.908;8.126;2023-12-20T08:00:27;100470.41;;;3.43;85.94
81397;BME280;70852;49.908;8.126;2023-12-20T08:02:53;100474.28;;;3.62;85.38
81397;BME280;70852;49.908;8.126;2023-12-20T08:05:18;100473.22;;;3.68;84.77
81397;BME280;70852;49.908;8.126;2023-12-20T08:07:46;100472.13;;;3.70;84.94
81397;BME280;70852;49.908;8.126;2023-12-20T08:10:11;100485.22;;;3.73;85.44
81397;BME280;70852;49.908;8.126;2023-12-20T08:12:36;100487.19;;;3.87;84.87
81397;BME280;70852;49.908;8.126;2023-12-20T08:15:09;100480.94;;;3.97;84.70
81397;BME280;70852;49.908;8.126;2023-12-20T08:17:37;100486.91;;;3.94;85.26
81397;BME280;70852;49.908;8.126;2023-12-20T08:20:02;100479.56;;;4.04;84.31
81397;BME280;70852;49.908;8.126;2023-12-20T08:22:31;100474.94;;;4.20;83.96
81397;BME280;70852;49.908;8.126;2023-12-20T08:24:59;100477.94;;;4.19;83.86
81397;BME280;70852;49.908;8.126;2023-12-20T08:27:24;100479.88;;;4.28;84.15
81397;BME280;70852;49.908;8.126;2023-12-20T08:29:53;100484.53;;;4.23;84.38
81397;BME280;70852;49.908;8.126;2023-12-20T08:32:18;100480.66;;;4.24;83.97
81397;BME280;70852;49.908;8.126;2023-12-20T08:34:46;100484.53;;;4.23;84.50
81397;BME280;70852;49.908;8.126;2023-12-20T08:37:11;100496.81;;;4.25;84.43
81397;BME280;70852;49.908;8.126;2023-12-20T08:39:39;100495.72;;;4.31;83.16
81397;BME280;70852;49.908;8.126;2023-12-20T08:42:10;100498.44;;;4.36;83.76
81397;BME280;70852;49.908;8.126;2023-12-20T08:44:37;100500.09;;;4.32;84.16
81397;BME280;70852;49.908;8.126;2023-12-20T08:47:05;100493.25;;;4.35;84.21
81397;BME280;70852;49.908;8.126;2023-12-20T08:49:30;100503.66;;;4.33;84.05
81397;BME280;70852;49.908;8.126;2023-12-20T08:52:00;100499.56;;;4.30;83.91
81397;BME280;70852;49.908;8.126;2023-12-20T08:54:27;100496.28;;;4.33;84.60
81397;BME280;70852;49.908;8.126;2023-12-20T08:56:55;100492.16;;;4.36;84.61
81397;BME280;70852;49.908;8.126;2023-12-20T08:59:20;100481.22;;;4.36;84.76
81397;BME280;70852;49.908;8.126;2023-12-20T09:01:46;100480.16;;;4.42;85.20
81397;BME280;70852;49.908;8.126;2023-12-20T09:04:13;100485.31;;;4.49;84.83
81397;BME280;70852;49.908;8.126;2023-12-20T09:06:38;100487.53;;;4.62;84.73
81397;BME280;70852;49.908;8.126;2023-12-20T09:09:03;100488.03;;;4.69;84.39
81397;BME280;70852;49.908;8.126;2023-12-20T09:11:31;100487.22;;;4.73;84.28
81397;BME280;70852;49.908;8.126;2023-12-20T09:13:56;100496.78;;;4.81;84.71
81397;BME280;70852;49.908;8.126;2023-12-20T09:16:22;100495.41;;;4.89;83.83
81397;BME280;70852;49.908;8.126;2023-12-20T09:18:47;100499.53;;;4.86;84.82
81397;BME280;70852;49.908;8.126;2023-12-20T09:21:12;100494.88;;;4.82;84.98
81397;BME280;70852;49.908;8.126;2023-12-20T09:23:40;100499.53;;;4.81;85.32
81397;BME280;70852;49.908;8.126;2023-12-20T09:26:07;100495.69;;;4.82;85.30
81397;BME280;70852;49.908;8.126;2023-12-20T09:28:35;100492.13;;;4.82;85.85
81397;BME280;70852;49.908;8.126;2023-12-20T09:31:02;100487.50;;;4.87;85.90
81397;BME280;70852;49.908;8.126;2023-12-20T09:33:28;100485.56;;;4.93;84.81
81397;BME280;70852;49.908;8.126;2023-12-20T09:35:56;100490.22;;;4.97;84.76
81397;BME280;70852;49.908;8.126;2023-12-20T09:38:21;100481.41;;;5.00;84.85
81397;BME280;70852;49.908;8.126;2023-12-20T09:40:49;100490.72;;;5.04;85.04
81397;BME280;70852;49.908;8.126;2023-12-20T09:43:19;100492.34;;;5.15;84.98
81397;BME280;70852;49.908;8.126;2023-12-20T09:45:47;100498.84;;;5.30;84.13
81397;BME280;70852;49.908;8.126;2023-12-20T09:48:18;100496.63;;;5.42;83.84
81397;BME280;70852;49.908;8.126;2023-12-20T09:50:44;100492.00;;;5.97;81.77
81397;BME280;70852;49.908;8.126;2023-12-20T09:53:12;100502.34;;;6.05;81.03
81397;BME280;70852;49.908;8.126;2023-12-20T09:55:42;100499.72;;;6.29;80.09
81397;BME280;70852;49.908;8.126;2023-12-20T09:58:07;100497.47;;;6.70;78.96
81397;BME280;70852;49.908;8.126;2023-12-20T10:00:36;100492.88;;;6.60;78.29
81397;BME280;70852;49.908;8.126;2023-12-20T10:03:01;100492.59;;;6.90;77.45
81397;BME280;70852;49.908;8.126;2023-12-20T10:05:29;100497.91;;;6.82;77.44
81397;BME280;70852;49.908;8.126;2023-12-20T10:07:59;100494.88;;;7.97;74.27
81397;BME280;70852;49.908;8.126;2023-12-20T10:10:26;100506.94;;;7.11;75.65
81397;BME280;70852;49.908;8.126;2023-12-20T10:13:08;100494.00;;;6.59;77.77
81397;BME280;70852;49.908;8.126;2023-12-20T10:15:36;100503.84;;;6.31;78.21
81397;BME280;70852;49.908;8.126;2023-12-20T10:18:05;100506.38;;;6.17;78.75
81397;BME280;70852;49.908;8.126;2023-12-20T10:20:35;100504.59;;;6.03;78.61
81397;BME280;70852;49.908;8.126;2023-12-20T10:23:01;100495.53;;;6.02;78.75
81397;BME280;70852;49.908;8.126;2023-12-20T10:25:31;100497.47;;;6.02;79.71
81397;BME280;70852;49.908;8.126;2023-12-20T10:28:13;100496.09;;;5.99;79.60
81397;BME280;70852;49.908;8.126;2023-12-20T10:30:39;100481.06;;;5.86;79.21
81397;BME280;70852;49.908;8.126;2023-12-20T10:33:10;100477.78;;;5.90;80.23
81397;BME280;70852;49.908;8.126;2023-12-20T10:35:39;100473.09;;;5.95;79.42
81397;BME280;70852;49.908;8.126;2023-12-20T10:38:07;100471.91;;;6.06;79.56
81397;BME280;70852;49.908;8.126;2023-12-20T10:40:36;100466.72;;;6.05;79.09
81397;BME280;70852;49.908;8.126;2023-12-20T10:43:02;100471.69;;;6.03;77.98
81397;BME280;70852;49.908;8.126;2023-12-20T10:45:28;100465.09;;;6.04;78.77
81397;BME280;70852;49.908;8.126;2023-12-20T10:47:53;100461.47;;;6.13;76.92
81397;BME280;70852;49.908;8.126;2023-12-20T10:50:21;100453.53;;;6.12;76.54
81397;BME280;70852;49.908;8.126;2023-12-20T10:52:47;100450.09;;;6.25;77.30
81397;BME280;70852;49.908;8.126;2023-12-20T10:55:13;100441.22;;;6.38;76.35
81397;BME280;70852;49.908;8.126;2023-12-20T10:57:39;100443.78;;;6.87;74.65
81397;BME280;70852;49.908;8.126;2023-12-20T11:00:09;100440.41;;;7.19;72.57
81397;BME280;70852;49.908;8.126;2023-12-20T11:02:39;100445.47;;;7.07;74.21
81397;BME280;70852;49.908;8.126;2023-12-20T11:07:41;100452.16;;;6.72;75.82
81397;BME280;70852;49.908;8.126;2023-12-20T11:12:54;100448.22;;;6.83;74.25
81397;BME280;70852;49.908;8.126;2023-12-20T11:15:24;100451.41;;;6.90;74.52
81397;BME280;70852;49.908;8.126;2023-12-20T11:17:57;100457.50;;;7.11;73.92
81397;BME280;70852;49.908;8.126;2023-12-20T11:20:23;100451.03;;;7.26;71.86
81397;BME280;70852;49.908;8.126;2023-12-20T11:22:56;100454.97;;;7.20;72.72
81397;BME280;70852;49.908;8.126;2023-12-20T11:25:21;100451.59;;;7.47;72.35
81397;BME280;70852;49.908;8.126;2023-12-20T11:28:07;100463.31;;;7.52;72.02
81397;BME280;70852;49.908;8.126;2023-12-20T11:30:54;100456.56;;;7.21;70.71
81397;BME280;70852;49.908;8.126;2023-12-20T11:33:25;100469.53;;;6.91;71.34
81397;BME280;70852;49.908;8.126;2023-12-20T11:35:51;100453.22;;;6.76;71.74
81397;BME280;70852;49.908;8.126;2023-12-20T11:38:17;100453.34;;;6.66;72.49
81397;BME280;70852;49.908;8.126;2023-12-20T11:40:48;100464.91;;;6.58;72.65
81397;BME280;70852;49.908;8.126;2023-12-20T11:43:31;100452.38;;;6.47;73.24
81397;BME280;70852;49.908;8.126;2023-12-20T11:46:03;100456.25;;;6.46;72.90
81397;BME280;70852;49.908;8.126;2023-12-20T11:48:29;100464.88;;;6.34;71.91
81397;BME280;70852;49.908;8.126;2023-12-20T11:50:56;100460.47;;;6.33;72.09
81397;BME280;70852;49.908;8.126;2023-12-20T11:53:21;100455.03;;;6.28;72.02
81397;BME280;70852;49.908;8.126;2023-12-20T11:55:49;100450.63;;;6.32;72.60
81397;BME280;70852;49.908;8.126;2023-12-20T11:58:17;100446.25;;;6.26;72.51
81397;BME280;70852;49.908;8.126;2023-12-20T12:00:42;100443.00;;;6.24;71.66
81397;BME280;70852;49.908;8.126;2023-12-20T12:03:08;100441.31;;;6.28;72.83
81397;BME280;70852;49.908;8.126;2023-12-20T12:05:34;100435.19;;;6.36;73.19
81397;BME280;70852;49.908;8.126;2023-12-20T12:08:00;100437.13;;;6.36;72.63
81397;BME280;70852;49.908;8.126;2023-12-20T12:10:26;100433.72;;;6.49;72.87
81397;BME280;70852;49.908;8.126;2023-12-20T12:12:53;100412.75;;;6.63;72.74
81397;BME280;70852;49.908;8.126;2023-12-20T12:15:21;100415.84;;;6.56;72.35
81397;BME280;70852;49.908;8.126;2023-12-20T12:17:54;100401.22;;;6.61;72.67
81397;BME280;70852;49.908;8.126;2023-12-20T12:20:23;100399.38;;;6.80;72.67
81397;BME280;70852;49.908;8.126;2023-12-20T12:25:25;100405.16;;;7.26;71.19
81397;BME280;70852;49.908;8.126;2023-12-20T12:27:51;100403.63;;;7.15;70.11
81397;BME280;70852;49.908;8.126;2023-12-20T12:30:16;100405.19;;;7.21;70.65
81397;BME280;70852;49.908;8.126;2023-12-20T12:32:44;100405.47;;;7.44;70.13
81397;BME280;70852;49.908;8.126;2023-12-20T12:35:09;100408.44;;;7.47;70.20
81397;BME280;70852;49.908;8.126;2023-12-20T12:37:39;100413.78;;;7.39;70.88
81397;BME280;70852;49.908;8.126;2023-12-20T12:40:11;100398.16;;;7.34;70.57
81397;BME280;70852;49.908;8.126;2023-12-20T12:42:40;100387.19;;;7.53;70.90
81397;BME280;70852;49.908;8.126;2023-12-20T12:45:12;100387.19;;;7.53;70.41
81397;BME280;70852;49.908;8.126;2023-12-20T12:47:37;100363.78;;;7.55;69.97
81397;BME280;70852;49.908;8.126;2023-12-20T12:50:06;100363.72;;;7.79;70.50
81397;BME280;70852;49.908;8.126;2023-12-20T12:52:32;100353.94;;;7.73;70.25
81397;BME280;70852;49.908;8.126;2023-12-20T12:54:59;100339.66;;;7.52;71.21
81397;BME280;70852;49.908;8.126;2023-12-20T12:57:25;100328.22;;;7.26;71.48
81397;BME280;70852;49.908;8.126;2023-12-20T12:59:50;100319.66;;;8.30;68.48
81397;BME280;70852;49.908;8.126;2023-12-20T13:02:15;100321.75;;;8.93;66.14
81397;BME280;70852;49.908;8.126;2023-12-20T13:04:42;100316.41;;;9.24;64.74
81397;BME280;70852;49.908;8.126;2023-12-20T13:07:13;100305.66;;;9.36;64.74